Time;durP1;ratioP1;P1;durP2;ratioP2;P2;SDS_P1;SDS_P2;PMS_P1;PMS_P2;Temp;Humidity;BMP_temperature;BMP_pressure;BME280_temperature;BME280_humidity;BME280_pressure;Samples;Min_cycle;Max_cycle;Signal;HPM_P1;HPM_P2
2021/10/28 00:13:56;;;;;;;33.23;29.73;;;8.80;99.90;;;;;;5097773;28;20499;-68
2021/10/28 00:16:25;;;;;;;36.87;28.53;;;8.80;99.90;;;;;;5099828;28;20965;-68
2021/10/28 00:19:00;;;;;;;33.97;26.50;;;8.90;99.90;;;;;;5095973;28;20468;-68
2021/10/28 00:21:27;;;;;;;37.60;27.70;;;8.90;99.90;;;;;;5096267;28;20461;-68
2021/10/28 00:23:59;;;;;;;29.60;26.50;;;8.90;99.90;;;;;;5097748;28;20546;-71
2021/10/28 00:26:26;;;;;;;35.53;27.33;;;8.90;99.90;;;;;;5099503;27;20472;-69
2021/10/28 00:28:58;;;;;;;30.90;26.63;;;8.90;99.90;;;;;;5099330;28;20469;-68
2021/10/28 00:31:26;;;;;;;32.03;25.87;;;8.90;99.90;;;;;;5099611;28;20760;-70
2021/10/28 00:33:55;;;;;;;32.83;25.50;;;8.90;99.90;;;;;;5095558;28;20548;-68
2021/10/28 00:36:22;;;;;;;33.33;27.27;;;8.90;99.90;;;;;;5097097;28;20518;-69
2021/10/28 00:38:50;;;;;;;29.73;25.50;;;8.80;99.90;;;;;;5095936;28;20472;-68
2021/10/28 00:41:19;;;;;;;43.13;28.70;;;8.80;99.90;;;;;;5098464;28;20500;-68
2021/10/28 00:43:48;;;;;;;32.17;27.27;;;8.80;99.90;;;;;;5097658;28;21051;-68
2021/10/28 00:46:16;;;;;;;31.30;28.00;;;8.70;99.90;;;;;;5096950;28;20462;-69
2021/10/28 00:48:44;;;;;;;33.23;27.50;;;8.60;99.90;;;;;;5094839;28;20799;-68
2021/10/28 00:51:12;;;;;;;29.67;26.43;;;8.60;99.90;;;;;;5098998;28;20489;-67
2021/10/28 00:53:40;;;;;;;30.67;27.47;;;8.60;99.90;;;;;;5094448;28;20472;-70
2021/10/28 00:56:07;;;;;;;33.47;26.10;;;8.60;99.90;;;;;;5095576;28;20525;-68
2021/10/28 00:58:35;;;;;;;31.20;26.67;;;8.50;99.90;;;;;;5102229;28;20559;-68
2021/10/28 01:01:05;;;;;;;31.93;27.40;;;8.50;99.90;;;;;;5098806;28;20464;-70
2021/10/28 01:03:34;;;;;;;44.63;26.60;;;8.40;99.90;;;;;;5101776;27;20467;-68
2021/10/28 01:06:02;;;;;;;37.23;27.87;;;8.50;99.90;;;;;;5100957;28;20473;-70
2021/10/28 01:08:31;;;;;;;36.20;28.20;;;8.40;99.90;;;;;;5100292;28;20821;-70
2021/10/28 01:11:00;;;;;;;38.73;27.63;;;8.40;99.90;;;;;;5094850;28;20461;-68
2021/10/28 01:13:27;;;;;;;32.90;28.07;;;8.40;99.90;;;;;;5100770;28;21104;-69
2021/10/28 01:15:55;;;;;;;40.10;28.83;;;8.30;99.90;;;;;;5097416;28;20464;-68
2021/10/28 01:18:23;;;;;;;34.43;28.20;;;8.40;99.90;;;;;;5097553;28;20456;-68
2021/10/28 01:20:56;;;;;;;30.00;26.80;;;8.30;99.90;;;;;;5095546;28;20869;-70
2021/10/28 01:23:24;;;;;;;29.50;25.80;;;8.30;99.90;;;;;;5097757;28;20529;-68
2021/10/28 01:25:53;;;;;;;30.03;26.97;;;8.30;99.90;;;;;;5103340;27;20458;-68
2021/10/28 01:28:21;;;;;;;29.83;26.60;;;8.30;99.90;;;;;;5098505;28;20470;-68
2021/10/28 01:30:50;;;;;;;29.23;26.27;;;8.30;99.90;;;;;;5099319;28;21009;-68
2021/10/28 01:33:17;;;;;;;28.53;25.60;;;8.30;99.90;;;;;;5096876;28;20465;-69
2021/10/28 01:35:44;;;;;;;30.37;27.07;;;8.30;99.90;;;;;;5099346;28;20470;-67
2021/10/28 01:38:15;;;;;;;29.10;26.30;;;8.30;99.90;;;;;;5095402;28;21182;-70
2021/10/28 01:40:43;;;;;;;28.27;25.53;;;8.30;99.90;;;;;;5095959;28;20978;-68
2021/10/28 01:43:10;;;;;;;29.17;26.07;;;8.30;99.90;;;;;;5096214;28;20799;-68
2021/10/28 01:45:37;;;;;;;28.27;25.43;;;8.30;99.90;;;;;;5094283;28;20465;-67
2021/10/28 01:48:06;;;;;;;29.37;26.33;;;8.30;99.90;;;;;;5089976;28;20460;-68
2021/10/28 01:50:33;;;;;;;32.13;25.60;;;8.30;99.90;;;;;;5103020;28;20459;-68
2021/10/28 01:53:01;;;;;;;29.63;26.43;;;8.30;99.90;;;;;;5099180;28;20500;-68
2021/10/28 01:55:29;;;;;;;38.13;25.87;;;8.20;99.90;;;;;;5096764;28;20459;-70
2021/10/28 01:57:56;;;;;;;38.83;25.93;;;8.20;99.90;;;;;;5095178;28;20556;-69
2021/10/28 02:00:24;;;;;;;29.10;25.50;;;8.20;99.90;;;;;;5098237;28;20500;-68
2021/10/28 02:02:52;;;;;;;44.00;28.23;;;8.20;99.90;;;;;;5100355;28;20458;-68
2021/10/28 02:05:21;;;;;;;30.40;26.30;;;8.20;99.90;;;;;;5095270;28;20465;-71
2021/10/28 02:07:48;;;;;;;28.60;25.83;;;8.20;99.90;;;;;;5096893;28;20556;-68
2021/10/28 02:10:17;;;;;;;28.07;25.47;;;8.20;99.90;;;;;;5095242;28;20466;-69
2021/10/28 02:12:47;;;;;;;31.80;26.17;;;8.20;99.90;;;;;;5097133;28;20492;-68
2021/10/28 02:15:16;;;;;;;29.20;26.40;;;8.20;99.90;;;;;;5098057;28;21287;-68
2021/10/28 02:17:44;;;;;;;27.83;24.90;;;8.10;99.90;;;;;;5093427;28;20471;-69
2021/10/28 02:20:13;;;;;;;28.37;25.47;;;8.10;99.90;;;;;;5088691;28;20473;-70
2021/10/28 02:22:41;;;;;;;31.50;26.40;;;8.10;99.90;;;;;;5097374;28;20468;-69
2021/10/28 02:25:10;;;;;;;29.67;26.67;;;8.10;99.90;;;;;;5096259;28;20467;-68
2021/10/28 02:27:38;;;;;;;32.97;27.30;;;8.10;99.90;;;;;;5099552;27;20460;-69
2021/10/28 02:30:09;;;;;;;29.47;26.47;;;8.00;99.90;;;;;;5093077;28;20459;-68
2021/10/28 02:32:36;;;;;;;31.77;28.50;;;8.10;99.90;;;;;;5088218;28;20905;-68
2021/10/28 02:35:03;;;;;;;29.47;26.60;;;8.00;99.90;;;;;;5100492;28;21008;-68
2021/10/28 02:37:30;;;;;;;29.17;26.20;;;8.00;99.90;;;;;;5098720;28;20467;-69
2021/10/28 02:39:57;;;;;;;29.73;26.60;;;8.00;99.90;;;;;;5095519;28;20465;-70
2021/10/28 02:42:25;;;;;;;30.97;27.67;;;8.00;99.90;;;;;;5097817;28;20935;-69
2021/10/28 02:44:52;;;;;;;28.50;25.70;;;8.00;99.90;;;;;;5088552;28;20989;-68
2021/10/28 02:47:20;;;;;;;29.20;26.13;;;8.00;99.90;;;;;;5100982;28;20461;-70
2021/10/28 02:49:47;;;;;;;29.03;26.03;;;8.00;99.90;;;;;;5096867;28;20449;-68
2021/10/28 02:52:14;;;;;;;29.67;26.67;;;8.00;99.90;;;;;;5095260;28;20493;-69
2021/10/28 02:54:42;;;;;;;35.90;25.73;;;7.90;99.90;;;;;;5096291;28;20470;-70
2021/10/28 02:57:09;;;;;;;28.60;25.93;;;8.00;99.90;;;;;;5094898;28;20468;-68
2021/10/28 02:59:36;;;;;;;28.57;25.50;;;8.00;99.90;;;;;;5094631;28;20719;-69
2021/10/28 03:02:04;;;;;;;33.90;25.97;;;8.00;99.90;;;;;;5099289;28;20463;-70
2021/10/28 03:04:32;;;;;;;27.83;25.10;;;7.90;99.90;;;;;;5098043;28;20469;-68
2021/10/28 03:06:59;;;;;;;28.53;23.73;;;8.00;99.90;;;;;;5090784;28;20468;-68
2021/10/28 03:09:28;;;;;;;26.83;24.00;;;8.00;99.90;;;;;;5098824;28;20467;-70
2021/10/28 03:11:57;;;;;;;27.13;24.50;;;8.00;99.90;;;;;;5095641;28;20483;-68
2021/10/28 03:14:31;;;;;;;29.53;25.60;;;8.00;99.90;;;;;;5099103;28;20456;-69
2021/10/28 03:17:02;;;;;;;29.23;25.33;;;8.00;99.90;;;;;;5088331;28;20925;-68
2021/10/28 03:19:46;;;;;;;28.57;25.40;;;8.00;99.90;;;;;;5098414;28;20456;-68
2021/10/28 03:27:52;;;;;;;29.63;24.67;;;8.00;99.90;;;;;;5099846;28;20834;-69
2021/10/28 03:30:20;;;;;;;28.57;25.67;;;8.00;99.90;;;;;;5097651;28;20955;-68
2021/10/28 03:32:47;;;;;;;28.07;25.07;;;8.00;99.90;;;;;;5097770;28;20493;-68
2021/10/28 03:35:15;;;;;;;27.40;24.60;;;8.00;99.90;;;;;;5090856;28;21014;-68
2021/10/28 03:37:47;;;;;;;29.90;23.80;;;8.00;99.90;;;;;;5097066;28;20465;-68
2021/10/28 04:00:26;;;;;;;27.23;24.53;;;8.00;99.90;;;;;;5094422;28;20802;-68
2021/10/28 04:17:10;;;;;;;26.33;23.87;;;7.90;99.90;;;;;;5104664;27;20456;-68
2021/10/28 04:19:49;;;;;;;26.20;23.60;;;7.90;99.90;;;;;;5096801;27;21034;-68
2021/10/28 04:30:28;;;;;;;26.43;24.13;;;7.90;99.90;;;;;;5098371;27;20837;-69
2021/10/28 04:32:55;;;;;;;29.90;27.00;;;7.90;99.90;;;;;;5102477;27;20477;-69
2021/10/28 04:35:22;;;;;;;35.27;26.80;;;7.90;99.90;;;;;;5102452;27;20464;-68
2021/10/28 04:37:50;;;;;;;27.37;25.00;;;7.90;99.90;;;;;;5108191;27;20457;-69
2021/10/28 04:40:17;;;;;;;28.97;26.00;;;7.90;99.90;;;;;;5112894;27;21059;-69
2021/10/28 04:42:45;;;;;;;27.73;24.83;;;7.90;99.90;;;;;;5112065;27;20827;-68
2021/10/28 04:45:12;;;;;;;28.63;25.70;;;7.90;99.90;;;;;;5107040;27;20816;-71
2021/10/28 04:47:39;;;;;;;29.07;26.00;;;7.90;99.90;;;;;;5103402;27;20893;-69
2021/10/28 04:50:07;;;;;;;29.50;24.30;;;7.90;99.90;;;;;;5100820;27;21178;-69
2021/10/28 04:52:34;;;;;;;27.53;25.20;;;7.90;99.90;;;;;;5100783;28;21195;-69
2021/10/28 04:55:01;;;;;;;26.47;23.70;;;7.90;99.90;;;;;;5101553;28;20467;-69
2021/10/28 04:57:28;;;;;;;28.30;25.47;;;7.80;99.90;;;;;;5099348;27;20816;-68
2021/10/28 04:59:56;;;;;;;27.00;24.27;;;7.80;99.90;;;;;;5101656;27;20472;-69
2021/10/28 05:02:23;;;;;;;29.10;26.10;;;7.80;99.90;;;;;;5102954;27;20468;-69
2021/10/28 05:04:50;;;;;;;28.60;25.47;;;7.80;99.90;;;;;;5093436;27;20464;-69
2021/10/28 05:07:17;;;;;;;31.37;25.80;;;7.70;99.90;;;;;;5102808;27;20460;-69
2021/10/28 05:09:44;;;;;;;28.27;25.13;;;7.70;99.90;;;;;;5105323;27;20854;-69
2021/10/28 05:12:11;;;;;;;28.30;25.60;;;7.70;99.90;;;;;;5104238;27;20988;-68
2021/10/28 05:14:37;;;;;;;31.70;26.80;;;7.70;99.90;;;;;;5102322;27;20509;-68
2021/10/28 05:17:06;;;;;;;30.50;25.50;;;7.70;99.90;;;;;;5095956;28;20541;-70
2021/10/28 05:19:37;;;;;;;31.93;27.37;;;7.60;99.90;;;;;;5095225;27;20566;-69
2021/10/28 05:22:04;;;;;;;29.20;26.00;;;7.60;99.90;;;;;;5102304;27;20471;-68
2021/10/28 05:24:31;;;;;;;29.50;25.93;;;7.70;99.90;;;;;;5100758;27;20567;-68
2021/10/28 05:26:58;;;;;;;29.90;26.07;;;7.70;99.90;;;;;;5097794;27;20469;-68
2021/10/28 05:29:25;;;;;;;28.40;25.70;;;7.70;99.90;;;;;;5095452;27;20452;-68
2021/10/28 05:31:53;;;;;;;38.30;25.40;;;7.70;99.90;;;;;;5105725;27;20573;-70
2021/10/28 05:34:22;;;;;;;29.47;25.77;;;7.70;99.90;;;;;;5105513;27;20677;-70
2021/10/28 05:36:50;;;;;;;28.93;26.17;;;7.70;99.90;;;;;;5102416;27;20466;-69
2021/10/28 05:39:17;;;;;;;30.87;26.53;;;7.60;99.90;;;;;;5098864;27;20531;-69
2021/10/28 05:41:44;;;;;;;39.17;26.27;;;7.60;99.90;;;;;;5100200;27;21022;-69
2021/10/28 05:44:11;;;;;;;28.57;25.50;;;7.70;99.90;;;;;;5109600;27;20461;-69
2021/10/28 05:46:38;;;;;;;32.47;26.17;;;7.60;99.90;;;;;;5112549;27;20466;-68
2021/10/28 05:49:05;;;;;;;30.47;26.87;;;7.60;99.90;;;;;;5108417;27;20477;-68
2021/10/28 05:51:36;;;;;;;30.33;26.50;;;7.60;99.90;;;;;;5110254;27;20460;-70
2021/10/28 05:54:03;;;;;;;30.33;27.17;;;7.50;99.90;;;;;;5106135;27;20563;-70
2021/10/28 05:56:31;;;;;;;32.07;27.07;;;7.50;99.90;;;;;;5105281;27;20571;-69
2021/10/28 05:58:58;;;;;;;35.70;28.83;;;7.50;99.90;;;;;;5102183;27;20461;-69
2021/10/28 06:01:25;;;;;;;31.50;27.17;;;7.50;99.90;;;;;;5099908;27;20521;-70
2021/10/28 06:03:52;;;;;;;31.47;28.07;;;7.50;99.90;;;;;;5103773;27;20535;-69
2021/10/28 06:06:19;;;;;;;33.60;27.57;;;7.50;99.90;;;;;;5091631;27;20464;-70
2021/10/28 06:08:48;;;;;;;31.17;27.73;;;7.50;99.90;;;;;;5093432;28;20469;-71
2021/10/28 06:11:16;;;;;;;33.00;27.40;;;7.50;99.90;;;;;;5101078;27;20461;-70
2021/10/28 06:13:46;;;;;;;35.03;27.80;;;7.50;99.90;;;;;;5093915;28;20499;-68
2021/10/28 06:16:13;;;;;;;30.67;27.47;;;7.50;99.90;;;;;;5099216;27;20457;-71
2021/10/28 06:18:42;;;;;;;29.43;26.63;;;7.50;99.90;;;;;;5089877;28;20457;-69
2021/10/28 06:21:11;;;;;;;34.73;27.87;;;7.40;99.90;;;;;;5100122;27;20469;-70
2021/10/28 06:23:39;;;;;;;32.90;29.47;;;7.30;99.90;;;;;;5099191;28;20456;-70
2021/10/28 06:26:09;;;;;;;33.17;27.47;;;7.30;99.90;;;;;;5097290;27;20464;-70
2021/10/28 06:28:37;;;;;;;30.93;27.73;;;7.30;99.90;;;;;;5099123;28;20450;-70
2021/10/28 06:31:04;;;;;;;33.47;28.77;;;7.30;99.90;;;;;;5099171;28;21016;-70
2021/10/28 06:33:34;;;;;;;30.47;27.13;;;7.20;99.90;;;;;;5095785;27;20484;-69
2021/10/28 06:36:03;;;;;;;39.87;27.60;;;7.30;99.90;;;;;;5090260;28;20528;-69
2021/10/28 06:38:33;;;;;;;31.67;27.27;;;7.30;99.90;;;;;;5089733;28;20460;-68
2021/10/28 06:41:01;;;;;;;35.00;27.83;;;7.30;99.90;;;;;;5098212;28;20482;-68
2021/10/28 06:43:32;;;;;;;34.77;28.97;;;7.40;99.90;;;;;;5098748;28;20467;-69
2021/10/28 06:45:59;;;;;;;39.40;29.07;;;7.40;99.90;;;;;;5103211;27;20646;-69
2021/10/28 06:48:27;;;;;;;40.70;29.53;;;7.40;99.90;;;;;;5094485;28;20822;-68
2021/10/28 06:50:56;;;;;;;49.60;29.90;;;7.50;99.90;;;;;;5098866;28;20582;-71
2021/10/28 06:53:26;;;;;;;44.87;30.80;;;7.50;99.90;;;;;;5101500;28;20484;-71
2021/10/28 06:56:07;;;;;;;41.17;30.37;;;7.50;99.90;;;;;;5104533;28;20564;-69
2021/10/28 07:04:05;;;;;;;34.23;29.40;;;7.70;99.90;;;;;;5099482;28;20540;-68
2021/10/28 07:06:37;;;;;;;45.77;31.90;;;7.70;99.90;;;;;;5092196;28;20469;-69
2021/10/28 07:09:07;;;;;;;50.60;30.73;;;7.80;99.90;;;;;;5095906;28;20459;-69
2021/10/28 07:11:37;;;;;;;44.50;32.03;;;7.80;99.90;;;;;;5096914;28;20542;-68
2021/10/28 07:14:07;;;;;;;40.70;31.33;;;7.80;99.90;;;;;;5098927;28;20497;-69
2021/10/28 07:16:45;;;;;;;50.73;30.67;;;7.90;99.90;;;;;;5099207;28;20943;-69
2021/10/28 07:19:35;;;;;;;46.13;31.50;;;7.90;99.90;;;;;;5100957;28;20614;-68
2021/10/28 07:22:28;;;;;;;49.47;34.47;;;7.90;99.90;;;;;;5100532;28;20516;-68
2021/10/28 07:25:17;;;;;;;50.23;32.10;;;8.00;99.90;;;;;;5092856;28;20465;-70
2021/10/28 07:30:45;;;;;;;42.43;31.13;;;8.10;99.90;;;;;;5077112;27;20460;-69
2021/10/28 07:39:26;;;;;;;42.47;29.80;;;8.40;99.90;;;;;;5112149;27;20582;-69
2021/10/28 07:56:06;;;;;;;39.30;30.10;;;9.00;99.90;;;;;;5115246;28;20471;-71
2021/10/28 07:58:49;;;;;;;39.53;29.10;;;9.20;99.90;;;;;;5112718;28;20519;-70
2021/10/28 08:15:18;;;;;;;47.63;30.70;;;9.70;99.90;;;;;;5110843;28;20502;-69
2021/10/28 08:20:53;;;;;;;36.87;30.73;;;9.90;99.90;;;;;;5075186;28;20453;-71
2021/10/28 08:23:31;;;;;;;35.23;29.00;;;10.00;99.90;;;;;;5116225;28;20512;-71
2021/10/28 08:28:46;;;;;;;43.87;30.27;;;10.20;99.90;;;;;;5116209;28;20546;-69
2021/10/28 08:31:16;;;;;;;41.23;30.50;;;10.30;99.90;;;;;;5114642;28;20537;-71
2021/10/28 08:33:43;;;;;;;34.83;29.50;;;10.30;99.90;;;;;;5111728;28;20912;-70
2021/10/28 08:36:11;;;;;;;38.23;31.67;;;10.50;99.90;;;;;;5100921;28;20497;-71
2021/10/28 08:38:40;;;;;;;42.67;33.83;;;10.50;99.90;;;;;;5105331;28;20508;-70
2021/10/28 08:41:08;;;;;;;45.40;30.00;;;10.50;99.90;;;;;;5100076;28;20469;-69
2021/10/28 08:43:40;;;;;;;37.17;30.33;;;10.60;99.90;;;;;;5101352;28;20472;-70
2021/10/28 08:46:09;;;;;;;34.00;30.37;;;10.60;99.90;;;;;;5106799;28;20457;-70
2021/10/28 08:48:41;;;;;;;32.13;28.83;;;10.70;99.90;;;;;;5103888;28;20466;-69
2021/10/28 08:51:11;;;;;;;35.67;30.50;;;10.70;99.90;;;;;;5094717;28;21086;-72
2021/10/28 08:56:56;;;;;;;35.07;31.47;;;11.00;99.90;;;;;;5041542;28;20466;-71
2021/10/28 08:59:38;;;;;;;35.10;31.30;;;10.90;99.90;;;;;;5042340;28;20470;-69
2021/10/28 09:19:37;;;;;;;39.70;30.57;;;11.50;99.90;;;;;;5095983;27;20489;-69
2021/10/28 09:24:59;;;;;;;36.80;29.47;;;11.80;99.90;;;;;;5087809;28;20465;-72
2021/10/28 09:27:29;;;;;;;33.77;30.20;;;11.90;99.90;;;;;;5091668;28;20470;-69
2021/10/28 09:30:09;;;;;;;30.87;27.67;;;11.90;99.90;;;;;;5091855;28;20462;-71
2021/10/28 09:32:43;;;;;;;40.43;29.20;;;12.00;99.90;;;;;;5092676;28;20593;-69
2021/10/28 09:35:30;;;;;;;33.37;29.97;;;12.10;99.90;;;;;;5092578;28;20461;-69
2021/10/28 09:43:54;;;;;;;31.87;28.87;;;12.40;99.90;;;;;;5093580;28;20465;-70
2021/10/28 09:46:37;;;;;;;34.47;30.27;;;12.40;99.90;;;;;;5094868;28;20514;-69
2021/10/28 09:51:57;;;;;;;32.00;27.83;;;12.50;99.90;;;;;;5099521;28;20465;-69
2021/10/28 09:54:34;;;;;;;31.40;26.90;;;12.60;99.90;;;;;;5090475;28;20959;-72
2021/10/28 09:59:53;;;;;;;30.07;27.00;;;12.80;99.90;;;;;;5088706;28;20448;-70
2021/10/28 10:02:28;;;;;;;27.23;24.93;;;12.90;99.90;;;;;;5089313;28;20464;-73
2021/10/28 10:04:57;;;;;;;31.73;25.93;;;13.00;99.90;;;;;;5086676;28;20471;-69
2021/10/28 10:07:25;;;;;;;27.63;24.83;;;13.10;99.90;;;;;;5092694;28;20465;-69
2021/10/28 10:09:52;;;;;;;26.93;24.43;;;13.20;99.90;;;;;;5091334;28;20540;-70
2021/10/28 10:12:20;;;;;;;27.17;24.60;;;13.40;99.90;;;;;;5094010;28;20469;-68
2021/10/28 10:14:47;;;;;;;26.37;24.07;;;13.70;99.90;;;;;;5092509;28;20548;-70
2021/10/28 10:17:16;;;;;;;26.20;23.73;;;14.30;99.90;;;;;;5091835;28;20854;-70
2021/10/28 10:19:47;;;;;;;27.07;22.77;;;14.90;99.90;;;;;;5094758;28;20464;-68
2021/10/28 10:22:24;;;;;;;22.77;21.00;;;15.60;99.90;;;;;;5096950;28;20550;-68
2021/10/28 10:25:07;;;;;;;23.63;21.50;;;16.00;99.90;;;;;;5081104;28;20497;-68
2021/10/28 11:32:55;;;;;;;21.93;20.13;;;20.60;99.90;;;;;;5090744;28;21016;-71
2021/10/28 12:20:39;;;;;;;22.87;20.60;;;21.40;99.90;;;;;;5085972;28;20461;-68
2021/10/28 12:23:34;;;;;;;22.00;20.20;;;21.20;99.90;;;;;;5086567;28;20556;-69
2021/10/28 12:45:52;;;;;;;20.73;19.13;;;21.60;99.90;;;;;;5109082;27;20502;-69
2021/10/28 12:51:35;;;;;;;23.20;20.87;;;22.10;99.90;;;;;;5059541;28;20451;-69
2021/10/28 12:57:05;;;;;;;22.60;21.00;;;21.80;99.90;;;;;;5116895;27;20469;-69
2021/10/28 13:05:22;;;;;;;23.90;22.07;;;22.50;99.90;;;;;;5115975;27;20468;-69
2021/10/28 13:35:57;;;;;;;23.23;21.20;;;22.80;99.90;;;;;;5088484;28;20501;-73
2021/10/28 13:48:01;;;;;;;22.70;20.93;;;22.80;99.90;;;;;;5089205;28;20615;-73
2021/10/28 13:49:56;;;;;;;23.10;21.17;;;21.80;99.90;;;;;;5076197;28;20842;-70
2021/10/28 13:52:41;;;;;;;22.77;20.80;;;21.90;99.90;;;;;;5090305;28;20462;-74
2021/10/28 13:55:20;;;;;;;22.30;20.30;;;21.90;99.90;;;;;;5077106;28;20461;-71
2021/10/28 15:28:57;;;;;;;28.00;22.03;;;19.30;99.90;;;;;;5073074;28;20476;-69
2021/10/28 15:36:54;;;;;;;23.40;20.90;;;19.20;99.90;;;;;;5078435;28;20568;-70
2021/10/28 15:39:31;;;;;;;29.37;20.50;;;19.20;99.90;;;;;;5078628;28;20922;-72
2021/10/28 16:23:25;;;;;;;19.97;18.27;;;14.50;99.90;;;;;;5072149;28;20813;-70
2021/10/28 16:25:53;;;;;;;20.60;18.77;;;14.30;99.90;;;;;;5083277;28;20470;-73
2021/10/28 16:28:20;;;;;;;23.87;18.10;;;14.10;99.90;;;;;;5079304;28;20968;-70
2021/10/28 16:30:49;;;;;;;22.40;20.20;;;14.10;99.90;;;;;;5082380;28;20494;-70
2021/10/28 16:33:17;;;;;;;21.47;19.70;;;14.00;99.90;;;;;;5080819;28;20461;-71
2021/10/28 16:35:46;;;;;;;20.57;18.67;;;13.80;99.90;;;;;;5080129;28;20490;-72
2021/10/28 16:38:16;;;;;;;20.30;18.57;;;13.70;99.90;;;;;;5077224;28;20461;-70
2021/10/28 16:40:43;;;;;;;23.73;19.30;;;13.60;99.90;;;;;;5074201;28;20463;-74
2021/10/28 16:43:10;;;;;;;20.83;19.03;;;13.50;99.90;;;;;;5076649;28;20489;-70
2021/10/28 16:45:38;;;;;;;22.07;20.00;;;13.30;99.90;;;;;;5077708;28;20541;-70
2021/10/28 16:48:06;;;;;;;21.60;19.57;;;13.20;99.90;;;;;;5078178;28;20465;-70
2021/10/28 16:50:36;;;;;;;21.00;19.30;;;13.20;99.90;;;;;;5073279;28;20455;-72
2021/10/28 16:53:04;;;;;;;20.83;18.73;;;13.10;99.90;;;;;;5079850;28;20460;-73
2021/10/28 16:55:32;;;;;;;21.97;20.07;;;13.00;99.90;;;;;;5076366;28;20467;-71
2021/10/28 16:57:59;;;;;;;21.80;20.03;;;12.90;99.90;;;;;;5076436;28;20454;-70
2021/10/28 17:00:27;;;;;;;22.63;19.77;;;12.80;99.90;;;;;;5074734;28;20463;-72
2021/10/28 17:02:56;;;;;;;21.00;19.00;;;12.80;99.90;;;;;;5073069;28;20551;-70
2021/10/28 17:05:24;;;;;;;22.10;20.00;;;12.70;99.90;;;;;;5077071;28;20469;-71
2021/10/28 17:07:52;;;;;;;21.57;19.73;;;12.60;99.90;;;;;;5082866;28;20461;-70
2021/10/28 17:10:19;;;;;;;27.20;21.03;;;12.50;99.90;;;;;;5073544;28;20455;-73
2021/10/28 17:12:49;;;;;;;22.60;20.40;;;12.50;99.90;;;;;;5078313;28;20463;-71
2021/10/28 17:15:16;;;;;;;24.90;20.70;;;12.40;99.90;;;;;;5075386;28;20905;-70
2021/10/28 17:17:44;;;;;;;23.07;20.50;;;12.30;99.90;;;;;;5074464;28;20463;-70
2021/10/28 17:20:12;;;;;;;22.40;20.30;;;12.30;99.90;;;;;;5084904;28;20454;-72
2021/10/28 17:22:40;;;;;;;24.77;20.10;;;12.20;99.90;;;;;;5079993;28;20890;-70
2021/10/28 17:25:10;;;;;;;22.67;20.47;;;12.10;99.90;;;;;;5077138;28;20468;-70
2021/10/28 17:27:38;;;;;;;23.07;20.87;;;12.00;99.90;;;;;;5075578;28;20571;-71
2021/10/28 17:30:07;;;;;;;23.03;20.80;;;11.90;99.90;;;;;;5078308;28;20469;-69
2021/10/28 17:32:36;;;;;;;23.47;21.00;;;11.90;99.90;;;;;;5087187;28;20486;-69
2021/10/28 17:35:04;;;;;;;25.20;22.50;;;11.90;99.90;;;;;;5082749;28;20977;-70
2021/10/28 17:37:31;;;;;;;24.87;22.27;;;11.80;99.90;;;;;;5081938;28;20831;-73
2021/10/28 17:40:00;;;;;;;26.43;21.20;;;11.70;99.90;;;;;;5085103;28;20461;-70
2021/10/28 17:42:29;;;;;;;24.27;20.57;;;11.70;99.90;;;;;;5083327;28;20483;-67
2021/10/28 17:45:00;;;;;;;24.43;21.63;;;11.70;99.90;;;;;;5085934;28;20997;-70
2021/10/28 17:47:28;;;;;;;24.37;21.63;;;11.70;99.90;;;;;;5086025;28;20548;-68
2021/10/28 17:49:55;;;;;;;28.00;22.27;;;11.60;99.90;;;;;;5083540;28;20450;-70
2021/10/28 17:52:24;;;;;;;36.60;23.37;;;11.60;99.90;;;;;;5080929;28;20468;-68
2021/10/28 17:54:50;;;;;;;25.07;22.53;;;11.60;99.90;;;;;;5085484;28;20514;-68
2021/10/28 17:57:17;;;;;;;26.47;23.90;;;11.50;99.90;;;;;;5087173;28;20473;-68
2021/10/28 17:59:46;;;;;;;27.23;23.80;;;11.50;99.90;;;;;;5072298;28;20465;-69
2021/10/28 18:02:13;;;;;;;28.63;23.40;;;11.50;99.90;;;;;;5080952;28;20851;-68
2021/10/28 18:04:43;;;;;;;26.57;23.50;;;11.50;99.90;;;;;;5080643;28;20467;-69
2021/10/28 18:07:11;;;;;;;25.97;23.37;;;11.40;99.90;;;;;;5082501;28;20459;-72
2021/10/28 18:09:43;;;;;;;27.37;24.67;;;11.40;99.90;;;;;;5084879;28;20532;-68
2021/10/28 18:12:11;;;;;;;28.10;25.40;;;11.30;99.90;;;;;;5082109;28;20493;-68
2021/10/28 18:14:37;;;;;;;32.33;26.80;;;11.30;99.90;;;;;;5084631;28;20494;-70
2021/10/28 18:17:08;;;;;;;26.37;23.77;;;11.20;99.90;;;;;;5082447;28;20507;-69
2021/10/28 18:19:35;;;;;;;28.43;24.57;;;11.20;99.90;;;;;;5079983;28;20544;-70
2021/10/28 18:22:04;;;;;;;37.17;25.93;;;11.10;99.90;;;;;;5082180;28;20503;-71
2021/10/28 18:24:32;;;;;;;32.03;26.47;;;11.10;99.90;;;;;;5084508;28;20467;-70
2021/10/28 18:27:01;;;;;;;28.47;25.47;;;11.00;99.90;;;;;;5073832;28;20466;-70
2021/10/28 18:29:28;;;;;;;27.00;24.30;;;11.10;99.90;;;;;;5089625;28;20481;-72
2021/10/28 18:31:56;;;;;;;26.93;24.23;;;11.00;99.90;;;;;;5086489;28;20866;-71
2021/10/28 18:34:24;;;;;;;28.93;24.93;;;11.00;99.90;;;;;;5084950;28;20559;-70
2021/10/28 18:36:52;;;;;;;25.97;23.77;;;11.00;99.90;;;;;;5076471;28;20473;-68
2021/10/28 18:39:20;;;;;;;31.03;25.87;;;11.00;99.90;;;;;;5078541;28;20450;-70
2021/10/28 18:41:50;;;;;;;27.50;24.87;;;11.00;99.90;;;;;;5094123;28;20491;-69
2021/10/28 18:44:21;;;;;;;26.53;24.03;;;11.00;99.90;;;;;;5080240;28;20555;-71
2021/10/28 18:46:50;;;;;;;27.17;24.77;;;11.00;99.90;;;;;;5077862;28;20463;-68
2021/10/28 18:49:17;;;;;;;28.67;25.63;;;10.90;99.90;;;;;;5084202;28;20508;-70
2021/10/28 18:51:48;;;;;;;26.60;24.10;;;10.90;99.90;;;;;;5080642;28;20505;-69
2021/10/28 18:54:16;;;;;;;27.63;25.07;;;10.90;99.90;;;;;;5078704;28;20454;-68
2021/10/28 18:56:44;;;;;;;28.93;26.20;;;10.80;99.90;;;;;;5080968;28;20468;-72
2021/10/28 18:59:12;;;;;;;27.67;25.10;;;10.80;99.90;;;;;;5078469;28;20489;-70
2021/10/28 19:01:41;;;;;;;28.93;25.10;;;10.80;99.90;;;;;;5082428;28;20454;-69
2021/10/28 19:04:07;;;;;;;27.50;24.80;;;10.80;99.90;;;;;;5078129;28;20523;-68
2021/10/28 19:06:35;;;;;;;30.63;27.37;;;10.80;99.90;;;;;;5081299;28;20455;-72
2021/10/28 19:09:05;;;;;;;30.23;26.93;;;10.70;99.90;;;;;;5083187;28;20964;-72
2021/10/28 19:11:32;;;;;;;33.43;27.47;;;10.70;99.90;;;;;;5078766;28;20882;-70
2021/10/28 19:13:59;;;;;;;29.40;26.40;;;10.60;99.90;;;;;;5076768;28;20469;-72
2021/10/28 19:16:26;;;;;;;32.23;28.83;;;10.60;99.90;;;;;;5081088;28;20467;-68
2021/10/28 19:18:54;;;;;;;29.83;26.77;;;10.60;99.90;;;;;;5078937;28;20454;-70
2021/10/28 19:21:22;;;;;;;31.63;27.43;;;10.50;99.90;;;;;;5087738;28;20461;-68
2021/10/28 19:23:49;;;;;;;30.70;26.90;;;10.50;99.90;;;;;;5089648;28;20490;-68
2021/10/28 19:26:17;;;;;;;32.37;29.00;;;10.40;99.90;;;;;;5079541;28;20825;-68
2021/10/28 19:28:44;;;;;;;31.90;28.40;;;10.30;99.90;;;;;;5076649;28;20473;-68
2021/10/28 19:31:14;;;;;;;33.67;30.03;;;10.30;99.90;;;;;;5079013;28;20995;-72
2021/10/28 19:33:44;;;;;;;30.60;27.40;;;10.30;99.90;;;;;;5078458;28;20549;-69
2021/10/28 19:36:15;;;;;;;31.00;27.80;;;10.40;99.90;;;;;;5081680;28;20466;-69
2021/10/28 19:38:54;;;;;;;30.17;26.80;;;10.30;99.90;;;;;;5077079;28;20485;-67
2021/10/28 19:41:48;;;;;;;33.97;27.30;;;10.30;99.90;;;;;;5078823;28;20839;-69
2021/10/28 19:46:59;;;;;;;31.80;27.77;;;10.20;99.90;;;;;;5079105;28;20457;-70
2021/10/28 19:49:27;;;;;;;34.53;28.10;;;10.10;99.90;;;;;;5073089;28;20449;-68
2021/10/28 19:51:54;;;;;;;35.43;28.23;;;10.10;99.90;;;;;;5080245;28;20980;-69
2021/10/28 19:54:22;;;;;;;35.43;28.40;;;10.10;99.90;;;;;;5075460;28;20828;-69
2021/10/28 19:56:51;;;;;;;33.10;27.50;;;10.10;99.90;;;;;;5074861;28;20555;-72
2021/10/28 19:59:18;;;;;;;35.53;27.00;;;10.10;99.90;;;;;;5078414;28;20494;-69
2021/10/28 20:01:49;;;;;;;34.40;25.70;;;10.00;99.90;;;;;;5080384;28;20459;-69
2021/10/28 20:04:32;;;;;;;33.50;28.37;;;10.00;99.90;;;;;;5081260;28;20943;-72
2021/10/28 20:07:15;;;;;;;33.47;26.70;;;10.00;99.90;;;;;;5083464;28;20458;-68
2021/10/28 20:20:40;;;;;;;32.63;27.90;;;9.70;99.90;;;;;;5075499;28;20496;-72
2021/10/28 20:23:08;;;;;;;31.57;28.23;;;9.70;99.90;;;;;;5083730;28;20834;-69
2021/10/28 20:25:37;;;;;;;36.77;30.90;;;9.60;99.90;;;;;;5080533;28;20460;-71
2021/10/28 20:28:08;;;;;;;32.03;28.13;;;9.60;99.90;;;;;;5076812;28;20555;-70
2021/10/28 20:30:45;;;;;;;36.30;30.80;;;9.60;99.90;;;;;;5086532;28;20869;-71
2021/10/28 20:33:13;;;;;;;49.23;28.03;;;9.60;99.90;;;;;;5072864;28;20965;-69
2021/10/28 20:35:55;;;;;;;38.97;29.37;;;9.50;99.90;;;;;;5073430;28;20881;-71
2021/10/28 20:38:22;;;;;;;43.43;30.60;;;9.50;99.90;;;;;;5070531;28;21023;-68
2021/10/28 20:40:49;;;;;;;38.53;28.90;;;9.50;99.90;;;;;;5077475;28;20466;-69